createdAt,value
2022-10-16T00:01:28.282Z,100773.53
2022-10-16T00:03:57.644Z,100771.03
2022-10-16T00:06:26.201Z,100771.91
2022-10-16T00:08:55.298Z,100775.13
2022-10-16T00:11:24.952Z,100765.91
2022-10-16T00:13:57.717Z,100773.81
2022-10-16T00:16:26.244Z,100767.94
2022-10-16T00:18:54.124Z,100771.00
2022-10-16T00:21:26.548Z,100769.28
2022-10-16T00:24:13.123Z,100778.81
2022-10-16T00:26:41.501Z,100776.84
2022-10-16T00:29:11.715Z,100764.09
2022-10-16T00:31:39.617Z,100762.47
2022-10-16T00:34:07.505Z,100768.03
2022-10-16T00:36:35.417Z,100775.13
2022-10-16T00:39:03.511Z,100769.84
2022-10-16T00:41:31.964Z,100768.50
2022-10-16T00:44:01.443Z,100759.94
2022-10-16T00:46:43.064Z,100759.75
2022-10-16T00:49:12.770Z,100756.25
2022-10-16T00:51:43.178Z,100754.47
2022-10-16T00:54:13.909Z,100760.31
2022-10-16T00:56:42.454Z,100757.38
2022-10-16T00:59:18.628Z,100760.31
2022-10-16T01:01:48.721Z,100765.97
2022-10-16T01:04:16.788Z,100755.38
2022-10-16T01:06:52.878Z,100751.06
2022-10-16T01:09:31.029Z,100743.97
2022-10-16T01:12:08.040Z,100749.91
2022-10-16T01:14:46.164Z,100751.44
2022-10-16T01:17:20.506Z,100759.19
2022-10-16T01:20:03.587Z,100754.56
2022-10-16T01:22:40.712Z,100750.78
2022-10-16T01:25:18.856Z,100756.53
2022-10-16T01:27:50.384Z,100764.38
2022-10-16T01:30:23.450Z,100754.84
2022-10-16T01:32:54.960Z,100756.16
2022-10-16T01:35:27.530Z,100764.94
2022-10-16T01:38:01.400Z,100769.00
2022-10-16T01:40:30.427Z,100766.81
2022-10-16T01:43:05.094Z,100760.59
2022-10-16T01:45:34.941Z,100755.28
2022-10-16T01:48:12.095Z,100764.53
2022-10-16T01:50:45.076Z,100769.28
2022-10-16T01:53:18.719Z,100768.91
2022-10-16T01:55:53.038Z,100759.84
2022-10-16T01:58:26.607Z,100767.00
2022-10-16T02:01:00.083Z,100756.72
2022-10-16T02:03:30.331Z,100761.44
2022-10-16T02:06:02.087Z,100759.66
2022-10-16T02:08:33.376Z,100765.31
2022-10-16T02:11:03.003Z,100765.41
2022-10-16T02:13:37.828Z,100768.81
2022-10-16T02:16:06.307Z,100772.19
2022-10-16T02:18:34.465Z,100758.88
2022-10-16T02:21:07.175Z,100763.25
2022-10-16T02:23:43.834Z,100765.69
2022-10-16T02:26:17.356Z,100774.56
2022-10-16T02:28:48.450Z,100765.31
2022-10-16T02:31:22.149Z,100773.25
2022-10-16T02:33:51.224Z,100768.13
2022-10-16T02:36:19.752Z,100764.56
2022-10-16T02:38:48.163Z,100759.16
2022-10-16T02:41:16.632Z,100760.09
2022-10-16T02:43:45.834Z,100762.94
2022-10-16T02:46:13.695Z,100761.53
2022-10-16T02:48:41.610Z,100772.69
2022-10-16T02:51:09.543Z,100769.47
2022-10-16T02:53:37.388Z,100782.03
2022-10-16T02:56:05.547Z,100793.09
2022-10-16T02:58:33.847Z,100781.28
2022-10-16T03:01:03.574Z,100776.28
2022-10-16T03:03:31.509Z,100779.09
2022-10-16T03:05:59.715Z,100781.94
2022-10-16T03:08:27.611Z,100789.50
2022-10-16T03:10:55.513Z,100787.78
2022-10-16T03:13:23.704Z,100775.50
2022-10-16T03:15:51.655Z,100775.22
2022-10-16T03:18:21.057Z,100772.97
2022-10-16T03:20:50.293Z,100780.59
2022-10-16T03:23:19.360Z,100775.59
2022-10-16T03:25:48.565Z,100792.13
2022-10-16T03:28:16.964Z,100792.88
2022-10-16T03:30:46.154Z,100794.09
2022-10-16T03:33:14.951Z,100792.59
2022-10-16T03:35:45.734Z,100784.28
2022-10-16T03:38:14.657Z,100787.59
2022-10-16T03:40:45.937Z,100789.19
2022-10-16T03:43:17.934Z,100783.53
2022-10-16T03:45:49.788Z,100801.09
2022-10-16T03:48:26.710Z,100794.56
2022-10-16T03:50:57.759Z,100803.94
2022-10-16T03:53:32.172Z,100802.88
2022-10-16T03:56:03.343Z,100805.44
2022-10-16T03:58:41.405Z,100796.75
2022-10-16T04:01:10.337Z,100809.50
2022-10-16T04:03:39.221Z,100803.56
2022-10-16T04:06:15.340Z,100799.69
2022-10-16T04:08:51.838Z,100806.97
2022-10-16T04:11:20.012Z,100806.50
2022-10-16T04:13:51.767Z,100804.41
2022-10-16T04:16:20.852Z,100815.16
2022-10-16T04:18:53.283Z,100809.41
2022-10-16T04:21:37.217Z,100820.28
2022-10-16T04:24:14.332Z,100823.00
2022-10-16T04:26:43.104Z,100827.63
2022-10-16T04:29:12.151Z,100830.66
2022-10-16T04:31:43.187Z,100845.19
2022-10-16T04:34:12.943Z,100844.97
2022-10-16T04:36:50.607Z,100846.56
2022-10-16T04:39:23.550Z,100847.50
2022-10-16T04:41:53.183Z,100846.84
2022-10-16T04:44:23.690Z,100861.94
2022-10-16T04:46:53.798Z,100862.03
2022-10-16T04:49:25.454Z,100863.72
2022-10-16T04:51:56.762Z,100867.50
2022-10-16T04:54:24.717Z,100877.66
2022-10-16T04:56:53.455Z,100880.19
2022-10-16T04:59:23.382Z,100880.34
2022-10-16T05:01:55.530Z,100876.19
2022-10-16T05:04:27.933Z,100878.19
2022-10-16T05:07:01.716Z,100859.00
2022-10-16T05:09:31.599Z,100863.28
2022-10-16T05:12:01.815Z,100865.84
2022-10-16T05:14:30.538Z,100874.16
2022-10-16T05:16:59.525Z,100885.06
2022-10-16T05:19:31.176Z,100883.84
2022-10-16T05:22:06.354Z,100885.75
2022-10-16T05:24:38.105Z,100879.09
2022-10-16T05:27:06.958Z,100880.09
2022-10-16T05:29:44.721Z,100881.03
2022-10-16T05:32:13.498Z,100882.38
2022-10-16T05:34:41.897Z,100885.41
2022-10-16T05:37:13.701Z,100886.44
2022-10-16T05:39:43.235Z,100895.22
2022-10-16T05:42:12.813Z,100896.06
2022-10-16T05:44:45.168Z,100890.66
2022-10-16T05:47:16.825Z,100894.72
2022-10-16T05:49:46.122Z,100892.63
2022-10-16T05:52:17.305Z,100901.22
2022-10-16T05:54:46.659Z,100902.88
2022-10-16T05:57:15.384Z,100901.50
2022-10-16T05:59:44.299Z,100902.63
2022-10-16T06:02:15.726Z,100901.81
2022-10-16T06:04:44.487Z,100911.91
2022-10-16T06:07:13.464Z,100921.50
2022-10-16T06:09:50.531Z,100929.53
2022-10-16T06:12:19.412Z,100928.00
2022-10-16T06:14:49.701Z,100936.53
2022-10-16T06:17:19.206Z,100942.63
2022-10-16T06:19:47.836Z,100932.09
2022-10-16T06:22:17.188Z,100923.81
2022-10-16T06:24:48.697Z,100929.38
2022-10-16T06:27:17.553Z,100934.34
2022-10-16T06:29:46.117Z,100932.81
2022-10-16T06:32:14.260Z,100933.19
2022-10-16T06:34:44.114Z,100931.44
2022-10-16T06:37:12.239Z,100942.88
2022-10-16T06:39:40.163Z,100942.31
2022-10-16T06:42:09.553Z,100944.91
2022-10-16T06:44:37.973Z,100952.34
2022-10-16T06:47:06.418Z,100942.91
2022-10-16T06:49:35.479Z,100973.91
2022-10-16T06:52:04.370Z,100974.00
2022-10-16T06:54:41.890Z,100975.81
2022-10-16T06:57:11.961Z,100957.75
2022-10-16T06:59:39.887Z,100972.56
2022-10-16T07:02:09.120Z,100976.38
2022-10-16T07:04:38.132Z,100974.78
2022-10-16T07:07:08.628Z,101000.31
2022-10-16T07:09:37.871Z,100996.56
2022-10-16T07:12:06.577Z,100997.94
2022-10-16T07:14:35.783Z,100989.09
2022-10-16T07:17:04.680Z,101010.63
2022-10-16T07:19:34.464Z,101025.84
2022-10-16T07:22:02.651Z,101026.63
2022-10-16T07:24:30.555Z,101037.72
2022-10-16T07:26:58.493Z,101037.06
2022-10-16T07:29:26.375Z,101034.78
2022-10-16T07:31:55.710Z,101041.41
2022-10-16T07:34:24.013Z,101051.84
2022-10-16T07:36:52.912Z,101069.13
2022-10-16T07:39:21.012Z,101058.19
2022-10-16T07:41:49.113Z,101057.41
2022-10-16T07:44:19.407Z,101055.53
2022-10-16T07:46:47.776Z,101071.94
2022-10-16T07:49:17.188Z,101063.06
2022-10-16T07:51:45.045Z,101071.81
2022-10-16T07:54:13.140Z,101073.81
2022-10-16T07:56:43.679Z,101078.97
2022-10-16T07:59:12.424Z,101072.44
2022-10-16T08:01:40.478Z,101079.13
2022-10-16T08:04:08.392Z,101081.56
2022-10-16T08:06:40.414Z,101087.50
2022-10-16T08:09:09.499Z,101089.06
2022-10-16T08:11:37.403Z,101094.81
2022-10-16T08:14:05.296Z,101097.63
2022-10-16T08:16:34.281Z,101096.41
2022-10-16T08:19:02.672Z,101113.69
2022-10-16T08:21:33.495Z,101109.38
2022-10-16T08:24:02.817Z,101128.16
2022-10-16T08:26:30.899Z,101132.03
2022-10-16T08:28:59.067Z,101132.44
2022-10-16T08:31:28.084Z,101140.03
2022-10-16T08:33:56.137Z,101127.38
2022-10-16T08:36:25.547Z,101132.88
2022-10-16T08:38:55.434Z,101134.28
2022-10-16T08:42:01.026Z,101129.69
2022-10-16T08:45:00.684Z,101139.75
2022-10-16T08:47:41.558Z,101148.53
2022-10-16T08:50:13.463Z,101150.09
2022-10-16T08:52:44.129Z,101151.81
2022-10-16T08:55:25.013Z,101165.28
2022-10-16T08:57:55.250Z,101154.63
2022-10-16T09:00:24.056Z,101168.66
2022-10-16T09:02:58.739Z,101177.59
2022-10-16T09:05:47.292Z,101183.69
2022-10-16T09:08:24.067Z,101186.34
2022-10-16T09:11:01.337Z,101191.38
2022-10-16T09:13:37.442Z,101204.34
2022-10-16T09:16:17.125Z,101199.50
2022-10-16T09:18:50.358Z,101207.31
2022-10-16T09:21:24.484Z,101204.41
2022-10-16T09:23:52.709Z,101206.25
2022-10-16T09:28:54.904Z,101223.19
2022-10-16T09:31:24.831Z,101224.28
2022-10-16T09:33:56.987Z,101233.03
2022-10-16T09:36:27.568Z,101240.00
2022-10-16T09:39:05.956Z,101238.59
2022-10-16T09:41:37.994Z,101234.69
2022-10-16T09:44:17.566Z,101242.59
2022-10-16T09:46:45.430Z,101267.34
2022-10-16T09:49:24.542Z,101244.19
2022-10-16T09:51:54.692Z,101253.03
2022-10-16T09:54:23.411Z,101246.56
2022-10-16T09:56:53.196Z,101253.53
2022-10-16T09:59:24.863Z,101245.34
2022-10-16T10:01:54.996Z,101244.59
2022-10-16T10:04:26.675Z,101263.31
2022-10-16T10:06:57.143Z,101251.13
2022-10-16T10:09:28.137Z,101248.59
2022-10-16T10:11:57.765Z,101252.56
2022-10-16T10:14:30.890Z,101250.53
2022-10-16T10:17:14.216Z,101261.25
2022-10-16T10:19:48.064Z,101267.72
2022-10-16T10:22:20.768Z,101263.16
2022-10-16T10:24:57.756Z,101286.56
2022-10-16T10:27:32.367Z,101282.16
2022-10-16T10:30:08.641Z,101280.75
2022-10-16T10:32:43.223Z,101272.03
2022-10-16T10:35:21.011Z,101285.94
2022-10-16T10:38:04.988Z,101305.16
2022-10-16T10:40:47.169Z,101300.22
2022-10-16T10:43:28.846Z,101317.41
2022-10-16T10:46:03.908Z,101310.31
2022-10-16T10:49:00.668Z,101312.09
2022-10-16T10:51:38.484Z,101313.22
2022-10-16T10:54:17.060Z,101317.59
2022-10-16T10:56:53.113Z,101314.38
2022-10-16T10:59:56.994Z,101322.63
2022-10-16T11:02:34.199Z,101322.41
2022-10-16T11:05:38.029Z,101322.19
2022-10-16T11:08:13.004Z,101333.72
2022-10-16T11:10:50.723Z,101335.22
2022-10-16T11:13:46.440Z,101360.25
2022-10-16T11:16:21.651Z,101344.25
2022-10-16T11:18:58.741Z,101343.97
2022-10-16T11:21:31.043Z,101331.97
2022-10-16T11:24:03.891Z,101332.19
2022-10-16T11:26:37.216Z,101338.91
2022-10-16T11:29:14.188Z,101343.47
2022-10-16T11:31:48.571Z,101356.94
2022-10-16T11:34:27.188Z,101362.63
2022-10-16T11:37:00.010Z,101345.28
2022-10-16T11:39:29.805Z,101364.31
2022-10-16T11:42:03.367Z,101357.59
2022-10-16T11:44:46.761Z,101363.75
2022-10-16T11:47:46.617Z,101382.53
2022-10-16T11:50:25.662Z,101369.16
2022-10-16T11:53:00.496Z,101366.78
2022-10-16T11:55:35.050Z,101362.47
2022-10-16T11:58:08.729Z,101362.78
2022-10-16T12:00:42.906Z,101378.34
2022-10-16T12:03:21.124Z,101376.31
2022-10-16T12:06:04.825Z,101396.25
2022-10-16T12:08:36.047Z,101397.47
2022-10-16T12:11:22.328Z,101394.84
2022-10-16T12:13:50.214Z,101401.34
2022-10-16T12:16:25.854Z,101404.19
2022-10-16T12:19:13.836Z,101407.25
2022-10-16T12:21:44.510Z,101424.44
2022-10-16T12:24:34.189Z,101420.53
2022-10-16T12:27:03.145Z,101433.09
2022-10-16T12:29:36.914Z,101422.13
2022-10-16T12:32:08.238Z,101425.31
2022-10-16T12:34:42.079Z,101426.91
2022-10-16T12:37:16.805Z,101438.38
2022-10-16T12:39:45.128Z,101438.47
2022-10-16T12:42:34.355Z,101439.81
2022-10-16T12:45:03.292Z,101440.47
2022-10-16T12:47:40.609Z,101446.78
2022-10-16T12:50:35.175Z,101458.00
2022-10-16T12:53:06.271Z,101459.25
2022-10-16T12:55:44.750Z,101466.28
2022-10-16T12:58:43.285Z,101466.38
2022-10-16T13:01:22.581Z,101469.41
2022-10-16T13:04:34.618Z,101466.53
2022-10-16T13:07:19.738Z,101465.13
2022-10-16T13:10:02.771Z,101469.53
2022-10-16T13:12:56.918Z,101476.13
2022-10-16T13:15:39.206Z,101489.97
2022-10-16T13:18:15.006Z,101484.16
2022-10-16T13:20:58.648Z,101488.25
2022-10-16T13:23:29.816Z,101489.31
2022-10-16T13:26:11.319Z,101499.06
2022-10-16T13:28:40.730Z,101499.84
2022-10-16T13:31:18.787Z,101500.97
2022-10-16T13:33:51.814Z,101508.09
2022-10-16T13:36:23.902Z,101504.53
2022-10-16T13:39:03.106Z,101507.84
2022-10-16T13:41:32.709Z,101510.34
2022-10-16T13:44:00.644Z,101513.66
2022-10-16T13:46:28.849Z,101518.75
2022-10-16T13:49:01.164Z,101523.50
2022-10-16T13:51:30.253Z,101528.81
2022-10-16T13:53:59.609Z,101518.00
2022-10-16T13:56:29.664Z,101517.78
2022-10-16T13:59:02.999Z,101514.78
2022-10-16T14:01:33.652Z,101530.75
2022-10-16T14:04:07.457Z,101536.38
2022-10-16T14:06:37.247Z,101539.38
2022-10-16T14:09:09.393Z,101540.19
2022-10-16T14:11:46.834Z,101534.91
2022-10-16T14:14:17.556Z,101539.84
2022-10-16T14:16:47.255Z,101533.88
2022-10-16T14:19:21.569Z,101543.28
2022-10-16T14:21:49.595Z,101535.31
2022-10-16T14:24:28.282Z,101531.59
2022-10-16T14:26:57.528Z,101546.75
2022-10-16T14:29:29.011Z,101543.25
2022-10-16T14:31:58.431Z,101552.66
2022-10-16T14:34:33.726Z,101552.25
2022-10-16T14:39:41.950Z,101555.22
2022-10-16T14:42:17.876Z,101576.25
2022-10-16T14:44:50.111Z,101588.84
2022-10-16T14:47:23.329Z,101582.41
2022-10-16T14:49:51.589Z,101591.00
2022-10-16T14:52:19.786Z,101591.00
2022-10-16T14:54:51.346Z,101597.84
2022-10-16T14:57:21.740Z,101602.03
2022-10-16T14:59:53.113Z,101606.69
2022-10-16T15:02:27.977Z,101598.16
2022-10-16T15:04:56.808Z,101589.75
2022-10-16T15:07:24.917Z,101584.56
2022-10-16T15:09:54.037Z,101575.59
2022-10-16T15:12:21.928Z,101586.28
2022-10-16T15:14:51.229Z,101587.88
2022-10-16T15:17:21.508Z,101593.47
2022-10-16T15:19:50.244Z,101593.78
2022-10-16T15:22:18.223Z,101588.75
2022-10-16T15:24:46.168Z,101589.00
2022-10-16T15:27:14.253Z,101606.41
2022-10-16T15:29:42.151Z,101597.75
2022-10-16T15:32:12.670Z,101587.97
2022-10-16T15:34:40.556Z,101592.94
2022-10-16T15:37:08.412Z,101597.41
2022-10-16T15:39:40.550Z,101602.69
2022-10-16T15:42:09.404Z,101603.81
2022-10-16T15:44:37.341Z,101604.38
2022-10-16T15:47:05.485Z,101609.63
2022-10-16T15:49:34.841Z,101610.19
2022-10-16T15:52:02.941Z,101613.53
2022-10-16T15:54:30.747Z,101609.81
2022-10-16T15:56:58.755Z,101616.34
2022-10-16T15:59:27.443Z,101621.13
2022-10-16T16:01:56.076Z,101621.69
2022-10-16T16:04:43.808Z,101620.66
2022-10-16T16:07:13.626Z,101619.78
2022-10-16T16:09:41.506Z,101623.22
2022-10-16T16:12:09.577Z,101620.81
2022-10-16T16:14:37.452Z,101625.13
2022-10-16T16:17:05.537Z,101629.78
2022-10-16T16:19:34.077Z,101627.69
2022-10-16T16:22:02.068Z,101640.09
2022-10-16T16:24:31.387Z,101641.59
2022-10-16T16:26:59.306Z,101638.28
2022-10-16T16:29:27.342Z,101641.13
2022-10-16T16:31:58.331Z,101648.56
2022-10-16T16:34:27.104Z,101649.03
2022-10-16T16:36:55.163Z,101656.16
2022-10-16T16:39:24.822Z,101655.41
2022-10-16T16:41:54.265Z,101660.59
2022-10-16T16:44:22.657Z,101655.84
2022-10-16T16:46:50.593Z,101658.03
2022-10-16T16:49:18.780Z,101661.19
2022-10-16T16:51:46.763Z,101670.53
2022-10-16T16:54:15.032Z,101674.84
2022-10-16T16:56:44.139Z,101678.31
2022-10-16T16:59:16.363Z,101684.19
2022-10-16T17:01:44.427Z,101684.13
2022-10-16T17:04:12.542Z,101687.16
2022-10-16T17:06:41.508Z,101695.31
2022-10-16T17:09:10.596Z,101688.50
2022-10-16T17:11:38.870Z,101696.53
2022-10-16T17:14:09.025Z,101711.59
2022-10-16T17:16:39.554Z,101700.09
2022-10-16T17:19:09.559Z,101702.69
2022-10-16T17:21:39.095Z,101702.19
2022-10-16T17:24:07.685Z,101715.09
2022-10-16T17:26:38.375Z,101724.69
2022-10-16T17:29:06.799Z,101717.47
2022-10-16T17:31:37.454Z,101716.06
2022-10-16T17:34:12.826Z,101706.59
2022-10-16T17:36:43.957Z,101726.41
2022-10-16T17:39:15.124Z,101720.78
2022-10-16T17:41:43.212Z,101717.34
2022-10-16T17:44:13.690Z,101710.44
2022-10-16T17:46:41.745Z,101713.75
2022-10-16T17:49:11.826Z,101713.47
2022-10-16T17:51:40.408Z,101723.22
2022-10-16T17:54:08.578Z,101739.25
2022-10-16T17:56:36.676Z,101744.63
2022-10-16T17:59:05.301Z,101747.38
2022-10-16T18:01:34.792Z,101745.53
2022-10-16T18:04:07.707Z,101752.94
2022-10-16T18:06:38.429Z,101758.75
2022-10-16T18:09:07.985Z,101769.44
2022-10-16T18:11:36.394Z,101770.66
2022-10-16T18:14:04.929Z,101776.28
2022-10-16T18:16:33.431Z,101775.13
2022-10-16T18:19:01.812Z,101770.84
2022-10-16T18:21:30.134Z,101762.25
2022-10-16T18:24:01.343Z,101758.47
2022-10-16T18:26:29.902Z,101763.44
2022-10-16T18:29:00.549Z,101766.19
2022-10-16T18:31:30.403Z,101771.16
2022-10-16T18:33:59.414Z,101763.63
2022-10-16T18:36:29.936Z,101773.78
2022-10-16T18:38:58.962Z,101771.88
2022-10-16T18:41:29.171Z,101776.00
2022-10-16T18:43:57.667Z,101779.59
2022-10-16T18:46:27.817Z,101786.69
2022-10-16T18:48:58.790Z,101778.38
2022-10-16T18:51:29.115Z,101778.75
2022-10-16T18:54:00.049Z,101781.84
2022-10-16T18:56:31.765Z,101785.63
2022-10-16T18:59:01.398Z,101784.78
2022-10-16T19:01:31.464Z,101789.44
2022-10-16T19:04:02.003Z,101795.47
2022-10-16T19:06:31.121Z,101789.84
2022-10-16T19:08:59.444Z,101793.13
2022-10-16T19:11:29.366Z,101776.63
2022-10-16T19:13:58.771Z,101785.22
2022-10-16T19:16:29.852Z,101795.38
2022-10-16T19:18:59.858Z,101793.72
2022-10-16T19:21:32.507Z,101809.81
2022-10-16T19:24:02.487Z,101802.09
2022-10-16T19:26:35.691Z,101802.22
2022-10-16T19:29:07.228Z,101795.38
2022-10-16T19:31:35.496Z,101788.47
2022-10-16T19:34:06.382Z,101795.38
2022-10-16T19:36:36.403Z,101792.63
2022-10-16T19:39:06.996Z,101792.63
2022-10-16T19:41:38.175Z,101796.44
2022-10-16T19:44:08.021Z,101795.69
2022-10-16T19:46:36.632Z,101802.44
2022-10-16T19:49:06.926Z,101804.19
2022-10-16T19:51:34.952Z,101799.84
2022-10-16T19:54:05.160Z,101800.22
2022-10-16T19:56:35.069Z,101810.84
2022-10-16T19:59:06.078Z,101809.31
2022-10-16T20:01:34.820Z,101817.56
2022-10-16T20:04:03.030Z,101822.00
2022-10-16T20:06:30.879Z,101814.97
2022-10-16T20:08:59.446Z,101819.44
2022-10-16T20:11:29.892Z,101816.03
2022-10-16T20:14:00.760Z,101823.22
2022-10-16T20:16:32.281Z,101832.69
2022-10-16T20:19:01.172Z,101824.94
2022-10-16T20:21:31.421Z,101835.28
2022-10-16T20:24:01.420Z,101828.56
2022-10-16T20:26:29.725Z,101830.28
2022-10-16T20:28:58.714Z,101825.09
2022-10-16T20:31:29.176Z,101821.69
2022-10-16T20:34:00.184Z,101826.31
2022-10-16T20:36:30.759Z,101825.69
2022-10-16T20:39:01.383Z,101821.03
2022-10-16T20:41:30.053Z,101821.53
2022-10-16T20:43:58.236Z,101818.78
2022-10-16T20:46:28.555Z,101809.66
2022-10-16T20:49:10.486Z,101811.19
2022-10-16T20:51:39.852Z,101808.44
2022-10-16T20:54:08.127Z,101802.44
2022-10-16T20:56:37.762Z,101800.94
2022-10-16T20:59:06.516Z,101805.19
2022-10-16T21:01:37.410Z,101793.53
2022-10-16T21:04:08.911Z,101791.28
2022-10-16T21:06:39.495Z,101798.13
2022-10-16T21:09:08.416Z,101794.72
2022-10-16T21:11:37.329Z,101794.22
2022-10-16T21:14:07.180Z,101786.81
2022-10-16T21:16:35.556Z,101789.94
2022-10-16T21:19:03.565Z,101777.88
2022-10-16T21:21:34.617Z,101770.50
2022-10-16T21:24:03.271Z,101780.47
2022-10-16T21:26:31.672Z,101772.06
2022-10-16T21:29:01.336Z,101771.34
2022-10-16T21:31:29.827Z,101769.31
2022-10-16T21:33:58.457Z,101772.06
2022-10-16T21:36:28.583Z,101766.56
2022-10-16T21:39:01.643Z,101780.63
2022-10-16T21:41:30.439Z,101791.47
2022-10-16T21:43:59.727Z,101789.94
2022-10-16T21:46:30.036Z,101784.22
2022-10-16T21:49:00.236Z,101779.47
2022-10-16T21:51:32.443Z,101783.38
2022-10-16T21:54:02.216Z,101773.44
2022-10-16T21:56:30.274Z,101777.88
2022-10-16T21:58:58.351Z,101782.53
2022-10-16T22:01:28.002Z,101781.31
2022-10-16T22:03:56.252Z,101771.19
2022-10-16T22:06:27.491Z,101770.34
2022-10-16T22:08:59.492Z,101765.50
2022-10-16T22:11:36.553Z,101751.59
2022-10-16T22:14:07.075Z,101755.56
2022-10-16T22:16:36.376Z,101765.19
2022-10-16T22:19:07.267Z,101761.75
2022-10-16T22:21:37.000Z,101755.41
2022-10-16T22:24:06.103Z,101755.22
2022-10-16T22:26:36.153Z,101753.50
2022-10-16T22:29:04.987Z,101759.19
2022-10-16T22:31:33.371Z,101753.19
2022-10-16T22:34:02.990Z,101758.13
2022-10-16T22:36:31.054Z,101755.59
2022-10-16T22:38:59.528Z,101738.75
2022-10-16T22:41:28.183Z,101745.09
2022-10-16T22:43:58.138Z,101765.19
2022-10-16T22:46:27.900Z,101766.59
2022-10-16T22:48:56.689Z,101766.59
2022-10-16T22:51:28.568Z,101757.47
2022-10-16T22:53:59.270Z,101760.75
2022-10-16T22:56:28.282Z,101758.19
2022-10-16T22:58:57.725Z,101758.06
2022-10-16T23:01:30.551Z,101745.84
2022-10-16T23:03:58.816Z,101741.88
2022-10-16T23:06:26.814Z,101737.25
2022-10-16T23:08:56.158Z,101732.97
2022-10-16T23:11:25.355Z,101738.13
2022-10-16T23:13:53.602Z,101736.25
2022-10-16T23:16:24.587Z,101728.72
2022-10-16T23:18:52.718Z,101734.25
2022-10-16T23:21:23.086Z,101728.75
2022-10-16T23:23:52.166Z,101728.59
2022-10-16T23:26:22.386Z,101723.59
2022-10-16T23:28:50.332Z,101731.66
2022-10-16T23:31:19.256Z,101735.94
2022-10-16T23:33:48.717Z,101728.19
2022-10-16T23:36:19.078Z,101738.50
2022-10-16T23:38:47.857Z,101743.97
2022-10-16T23:41:17.203Z,101745.88
2022-10-16T23:43:45.367Z,101746.72
2022-10-16T23:46:15.339Z,101747.09
2022-10-16T23:48:43.289Z,101742.28
2022-10-16T23:51:12.938Z,101741.22
2022-10-16T23:53:41.369Z,101739.19
2022-10-16T23:56:10.388Z,101736.59
2022-10-16T23:58:38.336Z,101730.94
